»·PEaware :: N844DF L80-KSAN

N844DF :: L80-KSAN

FLIGHT INFORMATION

Flight Status: Arrived
Operator: Privately registered:
United States
More flights under this callsign
Pilot: John C. (9438)
Aircraft: BEECH AIRCRAFT BARON
(BE58)
More flights by this aircraft type
Origin: L80 Hi Desert
United States
Destination: KSAN San Diego Intl-Lindbergh
United States
More flights between these airports :: More routes between these airports
Route: +
File this flight plan on PilotEdge
Remarks:
Altitude:
(Current/Filed)
8,500ft
Speed:
(Current/Filed)
170kts
Departed: 09-Oct-17 12:11 PM
Arrived: 09-Oct-17 01:00 PM
Distance/Time
Traveled:
97nm/0:49
Distance/Time
To Go:
Arrived

Flight Plot

Page will automatically refresh every two minutes.


Map Options




Map Legend


Flown Route
Filed Route
Departure Airport
Arrival Airport
Navaid (VOR, NDB)
Fix

Horizontal Profiles

Position Reports

Time Latitude Longitude Heading Altitude Ground
Speed
09-Oct-17 12:09 34.154341 -116.248884 138 2466ft 0kts
09-Oct-17 12:10 34.154341 -116.248884 138 2466ft 0kts
09-Oct-17 12:11 34.154341 -116.248884 138 2466ft 0kts
09-Oct-17 12:12 34.154784 -116.247602 1 2466ft 0kts
09-Oct-17 12:13 34.154784 -116.247602 1 2466ft 0kts
09-Oct-17 12:14 34.154784 -116.247602 1 2466ft 0kts
09-Oct-17 12:15 34.154200 -116.253004 262 2466ft 87kts
09-Oct-17 12:16 34.141169 -116.294748 248 3362ft 158kts
09-Oct-17 12:17 34.123028 -116.345277 251 4209ft 171kts
09-Oct-17 12:18 34.105196 -116.399011 251 5023ft 173kts
09-Oct-17 12:19 34.087391 -116.452672 251 5821ft 173kts
09-Oct-17 12:20 34.063028 -116.501837 223 6619ft 176kts
09-Oct-17 12:21 34.016361 -116.501632 144 7422ft 176kts
09-Oct-17 12:22 33.977624 -116.466208 141 8228ft 173kts
09-Oct-17 12:23 33.937976 -116.429332 141 8481ft 191kts
09-Oct-17 12:24 33.895622 -116.389963 141 8520ft 194kts
09-Oct-17 12:25 33.852661 -116.350698 141 8600ft 196kts
09-Oct-17 12:26 33.808948 -116.309802 141 8600ft 202kts
09-Oct-17 12:27 33.760605 -116.274096 151 8456ft 208kts
09-Oct-17 12:28 33.711317 -116.238981 151 8409ft 204kts
09-Oct-17 12:29 33.662803 -116.204624 151 8410ft 202kts
09-Oct-17 12:30 33.614642 -116.170493 151 8410ft 202kts
09-Oct-17 12:31 33.566219 -116.136156 151 8411ft 202kts
09-Oct-17 12:32 33.514094 -116.113068 171 8412ft 202kts
09-Oct-17 12:33 33.458973 -116.099426 171 8411ft 203kts
09-Oct-17 12:34 33.406432 -116.092431 198 8410ft 197kts
09-Oct-17 12:35 33.355271 -116.115478 219 8413ft 197kts
09-Oct-17 12:36 33.316521 -116.158806 240 8416ft 199kts
09-Oct-17 12:37 33.288532 -116.215189 241 8412ft 201kts
09-Oct-17 12:38 33.260018 -116.272865 241 8412ft 201kts
09-Oct-17 12:39 33.230748 -116.330112 241 8415ft 201kts
09-Oct-17 12:40 33.204034 -116.387045 253 8410ft 194kts
09-Oct-17 12:41 33.186555 -116.449962 256 8361ft 206kts
09-Oct-17 12:42 33.172831 -116.514443 256 8502ft 205kts
09-Oct-17 12:43 33.156702 -116.582372 251 8507ft 210kts
09-Oct-17 12:44 33.137862 -116.648498 251 8507ft 211kts
09-Oct-17 12:45 33.106366 -116.706692 231 8226ft 220kts
09-Oct-17 12:46 33.064433 -116.760481 211 7735ft 223kts
09-Oct-17 12:47 33.007535 -116.787268 191 7238ft 221kts
09-Oct-17 12:48 32.948638 -116.806305 191 6693ft 210kts
09-Oct-17 12:49 32.895093 -116.823940 191 6063ft 194kts
09-Oct-17 12:50 32.843706 -116.841114 191 5405ft 193kts
09-Oct-17 12:51 32.791354 -116.858510 191 4538ft 195kts
09-Oct-17 12:52 32.741656 -116.875268 191 4300ft 187kts
09-Oct-17 12:53 32.691893 -116.899210 209 3546ft 200kts
09-Oct-17 12:54 32.647423 -116.934194 210 3264ft 190kts
09-Oct-17 12:55 32.602397 -116.964112 166 2901ft 176kts
09-Oct-17 12:56 32.605020 -116.932022 353 2912ft 151kts
09-Oct-17 12:57 32.644627 -116.950135 341 2903ft 155kts
09-Oct-17 12:59 32.674807 -116.990017 312 2904ft 166kts
09-Oct-17 13:00 32.695383 -117.034456 292 2889ft 135kts
09-Oct-17 13:01 32.705695 -117.074785 289 2622ft 125kts
09-Oct-17 13:02 32.713768 -117.109548 283 2230ft 99kts
09-Oct-17 13:03 32.721894 -117.143657 291 775ft 106kts
09-Oct-17 13:04 32.729552 -117.173580 288 140ft 91kts
09-Oct-17 13:05 32.734695 -117.190594 43 20ft 0kts
09-Oct-17 13:06 32.734647 -117.189396 105 20ft 17kts
09-Oct-17 13:07 32.732827 -117.181788 105 20ft 26kts
09-Oct-17 13:08 32.732243 -117.176549 267 20ft 5kts
09-Oct-17 13:09 32.732141 -117.176665 196 20ft 0kts

Navigation Log

Ident Type
Flight plan parsing failed, navigation log unavailable